sensor_id;sensor_type;location;lat;lon;timestamp;P1;durP1;ratioP1;P2;durP2;ratioP2
72974;SDS011;61166;54.228;37.632;2022-12-18T00:01:19;5.22;;;1.70;;
72974;SDS011;61166;54.228;37.632;2022-12-18T00:03:46;4.23;;;1.43;;
72974;SDS011;61166;54.228;37.632;2022-12-18T00:06:13;3.42;;;1.50;;
72974;SDS011;61166;54.228;37.632;2022-12-18T00:08:40;4.22;;;1.67;;
72974;SDS011;61166;54.228;37.632;2022-12-18T00:11:07;4.10;;;1.60;;
72974;SDS011;61166;54.228;37.632;2022-12-18T00:13:34;4.35;;;1.90;;
72974;SDS011;61166;54.228;37.632;2022-12-18T00:16:20;3.90;;;1.80;;
72974;SDS011;61166;54.228;37.632;2022-12-18T00:18:48;3.55;;;1.38;;
72974;SDS011;61166;54.228;37.632;2022-12-18T00:21:15;3.47;;;1.48;;
72974;SDS011;61166;54.228;37.632;2022-12-18T00:23:42;3.35;;;1.30;;
72974;SDS011;61166;54.228;37.632;2022-12-18T00:26:10;3.75;;;1.52;;
72974;SDS011;61166;54.228;37.632;2022-12-18T00:28:37;3.27;;;1.23;;
72974;SDS011;61166;54.228;37.632;2022-12-18T00:31:04;4.10;;;1.45;;
72974;SDS011;61166;54.228;37.632;2022-12-18T00:33:33;2.65;;;0.98;;
72974;SDS011;61166;54.228;37.632;2022-12-18T00:36:04;3.53;;;1.30;;
72974;SDS011;61166;54.228;37.632;2022-12-18T00:38:33;3.70;;;1.52;;
72974;SDS011;61166;54.228;37.632;2022-12-18T00:41:00;3.83;;;1.70;;
72974;SDS011;61166;54.228;37.632;2022-12-18T00:43:27;2.95;;;1.20;;
72974;SDS011;61166;54.228;37.632;2022-12-18T00:45:54;5.70;;;2.10;;
72974;SDS011;61166;54.228;37.632;2022-12-18T00:48:20;4.80;;;1.45;;
72974;SDS011;61166;54.228;37.632;2022-12-18T00:50:47;3.15;;;1.10;;
72974;SDS011;61166;54.228;37.632;2022-12-18T00:53:15;3.20;;;1.13;;
72974;SDS011;61166;54.228;37.632;2022-12-18T00:55:42;4.15;;;1.42;;
72974;SDS011;61166;54.228;37.632;2022-12-18T00:58:09;4.38;;;2.33;;
72974;SDS011;61166;54.228;37.632;2022-12-18T01:00:36;4.45;;;1.98;;
72974;SDS011;61166;54.228;37.632;2022-12-18T01:03:03;4.07;;;2.28;;
72974;SDS011;61166;54.228;37.632;2022-12-18T01:05:30;2.77;;;1.20;;
72974;SDS011;61166;54.228;37.632;2022-12-18T01:07:56;3.88;;;1.55;;
72974;SDS011;61166;54.228;37.632;2022-12-18T01:10:23;3.85;;;1.52;;
72974;SDS011;61166;54.228;37.632;2022-12-18T01:12:50;4.40;;;1.77;;
72974;SDS011;61166;54.228;37.632;2022-12-18T01:15:17;3.05;;;1.20;;
72974;SDS011;61166;54.228;37.632;2022-12-18T01:17:44;3.17;;;1.80;;
72974;SDS011;61166;54.228;37.632;2022-12-18T01:20:11;2.97;;;1.15;;
72974;SDS011;61166;54.228;37.632;2022-12-18T01:22:38;3.67;;;1.52;;
72974;SDS011;61166;54.228;37.632;2022-12-18T01:25:04;3.55;;;1.63;;
72974;SDS011;61166;54.228;37.632;2022-12-18T01:27:32;3.63;;;1.60;;
72974;SDS011;61166;54.228;37.632;2022-12-18T01:29:59;2.93;;;1.23;;
72974;SDS011;61166;54.228;37.632;2022-12-18T01:32:25;3.58;;;1.50;;
72974;SDS011;61166;54.228;37.632;2022-12-18T01:34:52;2.72;;;1.30;;
72974;SDS011;61166;54.228;37.632;2022-12-18T01:37:18;2.05;;;0.57;;
72974;SDS011;61166;54.228;37.632;2022-12-18T01:39:45;3.47;;;1.58;;
72974;SDS011;61166;54.228;37.632;2022-12-18T01:42:12;2.80;;;1.50;;
72974;SDS011;61166;54.228;37.632;2022-12-18T01:49:47;2.35;;;0.80;;
72974;SDS011;61166;54.228;37.632;2022-12-18T01:52:13;2.45;;;0.80;;
72974;SDS011;61166;54.228;37.632;2022-12-18T01:54:40;2.40;;;0.93;;
72974;SDS011;61166;54.228;37.632;2022-12-18T01:57:06;2.58;;;0.70;;
72974;SDS011;61166;54.228;37.632;2022-12-18T01:59:33;2.55;;;1.10;;
72974;SDS011;61166;54.228;37.632;2022-12-18T02:01:59;2.83;;;1.20;;
72974;SDS011;61166;54.228;37.632;2022-12-18T02:04:28;2.65;;;0.90;;
72974;SDS011;61166;54.228;37.632;2022-12-18T02:06:57;1.90;;;0.80;;
72974;SDS011;61166;54.228;37.632;2022-12-18T02:09:28;2.50;;;0.75;;
72974;SDS011;61166;54.228;37.632;2022-12-18T02:17:18;2.33;;;0.82;;
72974;SDS011;61166;54.228;37.632;2022-12-18T02:27:29;5.30;;;2.92;;
72974;SDS011;61166;54.228;37.632;2022-12-18T02:29:58;6.05;;;2.45;;
72974;SDS011;61166;54.228;37.632;2022-12-18T02:32:28;6.07;;;2.60;;
72974;SDS011;61166;54.228;37.632;2022-12-18T02:35:00;9.38;;;3.42;;
72974;SDS011;61166;54.228;37.632;2022-12-18T02:37:30;8.38;;;3.25;;
72974;SDS011;61166;54.228;37.632;2022-12-18T02:39:57;5.65;;;2.50;;
72974;SDS011;61166;54.228;37.632;2022-12-18T02:42:25;6.68;;;2.67;;
72974;SDS011;61166;54.228;37.632;2022-12-18T02:44:55;9.80;;;3.90;;
72974;SDS011;61166;54.228;37.632;2022-12-18T02:47:22;7.32;;;2.55;;
72974;SDS011;61166;54.228;37.632;2022-12-18T02:49:53;6.40;;;2.90;;
72974;SDS011;61166;54.228;37.632;2022-12-18T03:00:04;4.15;;;1.35;;
72974;SDS011;61166;54.228;37.632;2022-12-18T03:02:40;9.55;;;4.43;;
72974;SDS011;61166;54.228;37.632;2022-12-18T03:05:20;6.43;;;2.60;;
72974;SDS011;61166;54.228;37.632;2022-12-18T03:08:00;8.60;;;3.75;;
72974;SDS011;61166;54.228;37.632;2022-12-18T03:10:32;10.63;;;3.43;;
72974;SDS011;61166;54.228;37.632;2022-12-18T03:13:15;9.15;;;3.80;;
72974;SDS011;61166;54.228;37.632;2022-12-18T03:15:50;8.65;;;3.60;;
72974;SDS011;61166;54.228;37.632;2022-12-18T03:18:23;9.98;;;5.80;;
72974;SDS011;61166;54.228;37.632;2022-12-18T03:20:51;6.57;;;3.03;;
72974;SDS011;61166;54.228;37.632;2022-12-18T03:23:21;7.60;;;3.33;;
72974;SDS011;61166;54.228;37.632;2022-12-18T03:26:04;8.95;;;3.50;;
72974;SDS011;61166;54.228;37.632;2022-12-18T03:28:33;7.78;;;3.70;;
72974;SDS011;61166;54.228;37.632;2022-12-18T03:31:01;9.60;;;4.22;;
72974;SDS011;61166;54.228;37.632;2022-12-18T03:33:30;10.15;;;4.55;;
72974;SDS011;61166;54.228;37.632;2022-12-18T03:35:58;13.93;;;5.77;;
72974;SDS011;61166;54.228;37.632;2022-12-18T03:38:24;10.15;;;4.72;;
72974;SDS011;61166;54.228;37.632;2022-12-18T03:43:52;12.82;;;5.50;;
72974;SDS011;61166;54.228;37.632;2022-12-18T03:48:59;17.80;;;7.73;;
72974;SDS011;61166;54.228;37.632;2022-12-18T03:51:36;10.68;;;4.43;;
72974;SDS011;61166;54.228;37.632;2022-12-18T03:54:10;13.00;;;6.00;;
72974;SDS011;61166;54.228;37.632;2022-12-18T03:56:42;12.65;;;5.00;;
72974;SDS011;61166;54.228;37.632;2022-12-18T03:59:11;16.58;;;7.18;;
72974;SDS011;61166;54.228;37.632;2022-12-18T04:01:42;11.97;;;4.97;;
72974;SDS011;61166;54.228;37.632;2022-12-18T04:04:14;13.48;;;5.25;;
72974;SDS011;61166;54.228;37.632;2022-12-18T04:06:42;13.65;;;5.55;;
72974;SDS011;61166;54.228;37.632;2022-12-18T04:09:11;10.70;;;4.28;;
72974;SDS011;61166;54.228;37.632;2022-12-18T04:11:39;13.07;;;6.15;;
72974;SDS011;61166;54.228;37.632;2022-12-18T04:14:07;14.10;;;6.53;;
72974;SDS011;61166;54.228;37.632;2022-12-18T04:16:39;12.98;;;5.57;;
72974;SDS011;61166;54.228;37.632;2022-12-18T04:19:06;14.05;;;4.97;;
72974;SDS011;61166;54.228;37.632;2022-12-18T04:21:32;13.60;;;6.43;;
72974;SDS011;61166;54.228;37.632;2022-12-18T04:23:59;12.50;;;4.72;;
72974;SDS011;61166;54.228;37.632;2022-12-18T04:26:25;15.93;;;6.80;;
72974;SDS011;61166;54.228;37.632;2022-12-18T04:28:52;17.15;;;6.55;;
72974;SDS011;61166;54.228;37.632;2022-12-18T04:31:18;13.43;;;5.70;;
72974;SDS011;61166;54.228;37.632;2022-12-18T04:33:45;13.55;;;4.78;;
72974;SDS011;61166;54.228;37.632;2022-12-18T04:36:11;15.27;;;6.97;;
72974;SDS011;61166;54.228;37.632;2022-12-18T04:38:38;10.43;;;4.87;;
72974;SDS011;61166;54.228;37.632;2022-12-18T04:41:05;14.38;;;6.88;;
72974;SDS011;61166;54.228;37.632;2022-12-18T04:43:31;16.33;;;7.03;;
72974;SDS011;61166;54.228;37.632;2022-12-18T04:46:02;8.45;;;4.28;;
72974;SDS011;61166;54.228;37.632;2022-12-18T04:48:29;12.38;;;6.50;;
72974;SDS011;61166;54.228;37.632;2022-12-18T04:50:56;8.47;;;4.27;;
72974;SDS011;61166;54.228;37.632;2022-12-18T04:53:23;15.18;;;6.70;;
72974;SDS011;61166;54.228;37.632;2022-12-18T04:55:49;13.02;;;6.55;;
72974;SDS011;61166;54.228;37.632;2022-12-18T04:58:16;12.38;;;5.95;;
72974;SDS011;61166;54.228;37.632;2022-12-18T05:00:42;12.90;;;6.18;;
72974;SDS011;61166;54.228;37.632;2022-12-18T05:03:09;15.00;;;6.63;;
72974;SDS011;61166;54.228;37.632;2022-12-18T05:05:36;15.10;;;5.93;;
72974;SDS011;61166;54.228;37.632;2022-12-18T05:08:02;17.15;;;7.57;;
72974;SDS011;61166;54.228;37.632;2022-12-18T05:10:30;13.80;;;6.10;;
72974;SDS011;61166;54.228;37.632;2022-12-18T05:13:03;10.80;;;4.32;;
72974;SDS011;61166;54.228;37.632;2022-12-18T05:15:31;15.97;;;6.60;;
72974;SDS011;61166;54.228;37.632;2022-12-18T05:17:59;13.70;;;5.57;;
72974;SDS011;61166;54.228;37.632;2022-12-18T05:20:26;16.13;;;5.72;;
72974;SDS011;61166;54.228;37.632;2022-12-18T05:22:53;13.95;;;6.40;;
72974;SDS011;61166;54.228;37.632;2022-12-18T05:25:20;17.38;;;7.28;;
72974;SDS011;61166;54.228;37.632;2022-12-18T05:27:47;13.27;;;5.57;;
72974;SDS011;61166;54.228;37.632;2022-12-18T05:30:15;16.27;;;6.97;;
72974;SDS011;61166;54.228;37.632;2022-12-18T05:32:42;13.55;;;5.78;;
72974;SDS011;61166;54.228;37.632;2022-12-18T05:35:10;11.32;;;4.70;;
72974;SDS011;61166;54.228;37.632;2022-12-18T05:37:37;9.18;;;4.40;;
72974;SDS011;61166;54.228;37.632;2022-12-18T05:40:08;14.90;;;5.30;;
72974;SDS011;61166;54.228;37.632;2022-12-18T05:42:35;13.52;;;5.97;;
72974;SDS011;61166;54.228;37.632;2022-12-18T05:45:02;12.25;;;5.80;;
72974;SDS011;61166;54.228;37.632;2022-12-18T05:47:30;12.15;;;4.90;;
72974;SDS011;61166;54.228;37.632;2022-12-18T05:49:57;16.23;;;6.93;;
72974;SDS011;61166;54.228;37.632;2022-12-18T05:52:23;17.90;;;8.43;;
72974;SDS011;61166;54.228;37.632;2022-12-18T05:54:50;14.77;;;7.13;;
72974;SDS011;61166;54.228;37.632;2022-12-18T05:57:16;16.55;;;7.00;;
72974;SDS011;61166;54.228;37.632;2022-12-18T05:59:43;13.90;;;6.38;;
72974;SDS011;61166;54.228;37.632;2022-12-18T06:02:10;14.57;;;5.55;;
72974;SDS011;61166;54.228;37.632;2022-12-18T06:04:36;9.73;;;4.17;;
72974;SDS011;61166;54.228;37.632;2022-12-18T06:07:03;14.68;;;6.40;;
72974;SDS011;61166;54.228;37.632;2022-12-18T06:09:29;12.00;;;5.88;;
72974;SDS011;61166;54.228;37.632;2022-12-18T06:11:56;16.05;;;6.63;;
72974;SDS011;61166;54.228;37.632;2022-12-18T06:14:23;15.07;;;6.60;;
72974;SDS011;61166;54.228;37.632;2022-12-18T06:16:50;13.60;;;6.00;;
72974;SDS011;61166;54.228;37.632;2022-12-18T06:19:17;14.25;;;5.50;;
72974;SDS011;61166;54.228;37.632;2022-12-18T06:21:44;14.40;;;6.72;;
72974;SDS011;61166;54.228;37.632;2022-12-18T06:24:10;15.00;;;6.72;;
72974;SDS011;61166;54.228;37.632;2022-12-18T06:26:37;13.95;;;5.97;;
72974;SDS011;61166;54.228;37.632;2022-12-18T06:29:05;14.30;;;6.27;;
72974;SDS011;61166;54.228;37.632;2022-12-18T06:31:32;11.88;;;5.07;;
72974;SDS011;61166;54.228;37.632;2022-12-18T06:33:59;14.57;;;5.90;;
72974;SDS011;61166;54.228;37.632;2022-12-18T06:36:29;9.70;;;4.10;;
72974;SDS011;61166;54.228;37.632;2022-12-18T06:38:56;13.57;;;6.13;;
72974;SDS011;61166;54.228;37.632;2022-12-18T06:41:23;11.07;;;4.87;;
72974;SDS011;61166;54.228;37.632;2022-12-18T06:43:50;18.65;;;6.93;;
72974;SDS011;61166;54.228;37.632;2022-12-18T06:46:20;14.35;;;6.03;;
72974;SDS011;61166;54.228;37.632;2022-12-18T06:48:47;13.55;;;6.20;;
72974;SDS011;61166;54.228;37.632;2022-12-18T06:51:16;13.82;;;5.75;;
72974;SDS011;61166;54.228;37.632;2022-12-18T06:53:47;14.47;;;5.87;;
72974;SDS011;61166;54.228;37.632;2022-12-18T06:56:13;14.88;;;5.45;;
72974;SDS011;61166;54.228;37.632;2022-12-18T06:58:40;14.73;;;6.30;;
72974;SDS011;61166;54.228;37.632;2022-12-18T07:01:08;14.00;;;6.63;;
72974;SDS011;61166;54.228;37.632;2022-12-18T07:03:41;14.45;;;7.25;;
72974;SDS011;61166;54.228;37.632;2022-12-18T07:06:13;14.23;;;5.77;;
72974;SDS011;61166;54.228;37.632;2022-12-18T07:08:42;16.27;;;7.97;;
72974;SDS011;61166;54.228;37.632;2022-12-18T07:11:09;8.15;;;3.78;;
72974;SDS011;61166;54.228;37.632;2022-12-18T07:13:36;12.15;;;5.00;;
72974;SDS011;61166;54.228;37.632;2022-12-18T07:16:10;12.60;;;5.88;;
72974;SDS011;61166;54.228;37.632;2022-12-18T07:18:47;10.03;;;4.43;;
72974;SDS011;61166;54.228;37.632;2022-12-18T07:21:16;14.95;;;8.02;;
72974;SDS011;61166;54.228;37.632;2022-12-18T07:23:45;13.88;;;7.45;;
72974;SDS011;61166;54.228;37.632;2022-12-18T07:26:12;17.48;;;7.43;;
72974;SDS011;61166;54.228;37.632;2022-12-18T07:28:40;18.20;;;8.30;;
72974;SDS011;61166;54.228;37.632;2022-12-18T07:31:08;15.40;;;6.90;;
72974;SDS011;61166;54.228;37.632;2022-12-18T07:33:37;17.05;;;7.18;;
72974;SDS011;61166;54.228;37.632;2022-12-18T07:36:06;16.85;;;7.72;;
72974;SDS011;61166;54.228;37.632;2022-12-18T07:38:34;13.02;;;6.22;;
72974;SDS011;61166;54.228;37.632;2022-12-18T07:41:02;13.50;;;5.65;;
72974;SDS011;61166;54.228;37.632;2022-12-18T07:43:32;13.83;;;6.70;;
72974;SDS011;61166;54.228;37.632;2022-12-18T07:45:59;11.55;;;5.20;;
72974;SDS011;61166;54.228;37.632;2022-12-18T07:48:26;16.88;;;7.43;;
72974;SDS011;61166;54.228;37.632;2022-12-18T07:50:57;9.82;;;3.72;;
72974;SDS011;61166;54.228;37.632;2022-12-18T07:53:27;10.35;;;5.60;;
72974;SDS011;61166;54.228;37.632;2022-12-18T07:56:01;18.73;;;7.17;;
72974;SDS011;61166;54.228;37.632;2022-12-18T07:58:50;15.65;;;6.45;;
72974;SDS011;61166;54.228;37.632;2022-12-18T08:01:17;19.23;;;7.20;;
72974;SDS011;61166;54.228;37.632;2022-12-18T08:03:44;12.55;;;5.18;;
72974;SDS011;61166;54.228;37.632;2022-12-18T08:06:10;11.75;;;5.05;;
72974;SDS011;61166;54.228;37.632;2022-12-18T08:08:37;13.83;;;4.87;;
72974;SDS011;61166;54.228;37.632;2022-12-18T08:11:03;13.23;;;5.45;;
72974;SDS011;61166;54.228;37.632;2022-12-18T08:13:30;18.67;;;7.95;;
72974;SDS011;61166;54.228;37.632;2022-12-18T08:16:04;11.48;;;5.68;;
72974;SDS011;61166;54.228;37.632;2022-12-18T08:18:33;14.23;;;7.30;;
72974;SDS011;61166;54.228;37.632;2022-12-18T08:21:08;13.90;;;6.17;;
72974;SDS011;61166;54.228;37.632;2022-12-18T08:23:36;14.85;;;7.00;;
72974;SDS011;61166;54.228;37.632;2022-12-18T08:26:08;15.68;;;6.95;;
72974;SDS011;61166;54.228;37.632;2022-12-18T08:28:35;13.25;;;6.00;;
72974;SDS011;61166;54.228;37.632;2022-12-18T08:31:02;15.50;;;6.45;;
72974;SDS011;61166;54.228;37.632;2022-12-18T08:33:29;15.13;;;6.70;;
72974;SDS011;61166;54.228;37.632;2022-12-18T08:35:57;8.65;;;4.43;;
72974;SDS011;61166;54.228;37.632;2022-12-18T08:38:24;14.20;;;7.07;;
72974;SDS011;61166;54.228;37.632;2022-12-18T08:41:04;8.30;;;3.95;;
72974;SDS011;61166;54.228;37.632;2022-12-18T08:43:32;14.43;;;6.85;;
72974;SDS011;61166;54.228;37.632;2022-12-18T08:45:59;13.33;;;7.03;;
72974;SDS011;61166;54.228;37.632;2022-12-18T08:48:26;13.38;;;5.20;;
72974;SDS011;61166;54.228;37.632;2022-12-18T08:50:59;14.27;;;7.10;;
72974;SDS011;61166;54.228;37.632;2022-12-18T08:53:26;14.60;;;6.10;;
72974;SDS011;61166;54.228;37.632;2022-12-18T08:56:00;18.98;;;6.43;;
72974;SDS011;61166;54.228;37.632;2022-12-18T08:58:27;14.30;;;6.13;;
72974;SDS011;61166;54.228;37.632;2022-12-18T09:00:53;17.35;;;6.38;;
72974;SDS011;61166;54.228;37.632;2022-12-18T09:03:20;15.90;;;8.15;;
72974;SDS011;61166;54.228;37.632;2022-12-18T09:05:47;13.40;;;5.70;;
72974;SDS011;61166;54.228;37.632;2022-12-18T09:08:14;11.38;;;5.68;;
72974;SDS011;61166;54.228;37.632;2022-12-18T09:10:42;14.53;;;5.80;;
72974;SDS011;61166;54.228;37.632;2022-12-18T09:13:12;14.27;;;5.88;;
72974;SDS011;61166;54.228;37.632;2022-12-18T09:15:40;11.80;;;4.90;;
72974;SDS011;61166;54.228;37.632;2022-12-18T09:18:14;12.77;;;6.18;;
72974;SDS011;61166;54.228;37.632;2022-12-18T09:20:42;14.20;;;5.38;;
72974;SDS011;61166;54.228;37.632;2022-12-18T09:23:10;13.03;;;5.90;;
72974;SDS011;61166;54.228;37.632;2022-12-18T09:25:37;15.65;;;7.13;;
72974;SDS011;61166;54.228;37.632;2022-12-18T09:28:14;9.15;;;4.13;;
72974;SDS011;61166;54.228;37.632;2022-12-18T09:30:44;12.98;;;6.47;;
72974;SDS011;61166;54.228;37.632;2022-12-18T09:33:13;16.00;;;7.22;;
72974;SDS011;61166;54.228;37.632;2022-12-18T09:35:40;13.43;;;6.57;;
72974;SDS011;61166;54.228;37.632;2022-12-18T09:38:08;14.43;;;6.05;;
72974;SDS011;61166;54.228;37.632;2022-12-18T09:40:45;12.75;;;5.68;;
72974;SDS011;61166;54.228;37.632;2022-12-18T09:43:18;16.10;;;7.43;;
72974;SDS011;61166;54.228;37.632;2022-12-18T09:45:50;9.10;;;3.92;;
72974;SDS011;61166;54.228;37.632;2022-12-18T09:50:53;14.50;;;6.13;;
72974;SDS011;61166;54.228;37.632;2022-12-18T09:53:26;14.05;;;6.22;;
72974;SDS011;61166;54.228;37.632;2022-12-18T09:55:56;14.48;;;5.80;;
72974;SDS011;61166;54.228;37.632;2022-12-18T09:58:28;14.25;;;6.85;;
72974;SDS011;61166;54.228;37.632;2022-12-18T10:01:01;12.13;;;5.40;;
72974;SDS011;61166;54.228;37.632;2022-12-18T10:03:28;10.35;;;4.75;;
72974;SDS011;61166;54.228;37.632;2022-12-18T10:11:34;11.68;;;5.75;;
72974;SDS011;61166;54.228;37.632;2022-12-18T10:14:05;8.60;;;4.20;;
72974;SDS011;61166;54.228;37.632;2022-12-18T10:24:59;10.55;;;4.93;;
72974;SDS011;61166;54.228;37.632;2022-12-18T10:27:46;11.53;;;5.00;;
72974;SDS011;61166;54.228;37.632;2022-12-18T10:30:14;14.48;;;6.50;;
72974;SDS011;61166;54.228;37.632;2022-12-18T10:32:44;13.18;;;4.88;;
72974;SDS011;61166;54.228;37.632;2022-12-18T10:35:18;13.13;;;5.63;;
72974;SDS011;61166;54.228;37.632;2022-12-18T10:43:34;8.93;;;3.83;;
72974;SDS011;61166;54.228;37.632;2022-12-18T10:51:06;14.80;;;7.00;;
72974;SDS011;61166;54.228;37.632;2022-12-18T10:53:38;10.63;;;5.17;;
72974;SDS011;61166;54.228;37.632;2022-12-18T10:56:08;13.60;;;6.32;;
72974;SDS011;61166;54.228;37.632;2022-12-18T10:58:36;11.13;;;5.88;;
72974;SDS011;61166;54.228;37.632;2022-12-18T11:01:05;10.48;;;5.20;;
72974;SDS011;61166;54.228;37.632;2022-12-18T11:03:44;14.35;;;6.95;;
72974;SDS011;61166;54.228;37.632;2022-12-18T11:06:16;13.57;;;6.50;;
72974;SDS011;61166;54.228;37.632;2022-12-18T11:08:57;14.77;;;6.35;;
72974;SDS011;61166;54.228;37.632;2022-12-18T11:11:38;14.80;;;6.43;;
72974;SDS011;61166;54.228;37.632;2022-12-18T11:14:05;12.35;;;5.45;;
72974;SDS011;61166;54.228;37.632;2022-12-18T11:16:43;12.80;;;5.70;;
72974;SDS011;61166;54.228;37.632;2022-12-18T11:19:38;13.53;;;6.10;;
72974;SDS011;61166;54.228;37.632;2022-12-18T11:24:58;9.65;;;4.32;;
72974;SDS011;61166;54.228;37.632;2022-12-18T11:27:49;14.65;;;5.88;;
72974;SDS011;61166;54.228;37.632;2022-12-18T11:30:26;14.20;;;5.80;;
72974;SDS011;61166;54.228;37.632;2022-12-18T11:33:15;11.23;;;5.13;;
72974;SDS011;61166;54.228;37.632;2022-12-18T11:35:58;15.77;;;5.78;;
72974;SDS011;61166;54.228;37.632;2022-12-18T11:43:53;11.65;;;5.78;;
72974;SDS011;61166;54.228;37.632;2022-12-18T11:46:23;12.23;;;4.80;;
72974;SDS011;61166;54.228;37.632;2022-12-18T11:49:04;9.38;;;4.30;;
72974;SDS011;61166;54.228;37.632;2022-12-18T11:51:44;13.93;;;6.32;;
72974;SDS011;61166;54.228;37.632;2022-12-18T11:54:20;13.73;;;6.43;;
72974;SDS011;61166;54.228;37.632;2022-12-18T11:56:48;12.07;;;5.15;;
72974;SDS011;61166;54.228;37.632;2022-12-18T12:04:48;16.13;;;6.15;;
72974;SDS011;61166;54.228;37.632;2022-12-18T12:12:33;12.90;;;5.00;;
72974;SDS011;61166;54.228;37.632;2022-12-18T12:18:17;12.93;;;5.82;;
72974;SDS011;61166;54.228;37.632;2022-12-18T12:26:34;13.43;;;4.37;;
72974;SDS011;61166;54.228;37.632;2022-12-18T12:34:43;11.38;;;5.03;;
72974;SDS011;61166;54.228;37.632;2022-12-18T12:39:45;13.03;;;5.57;;
72974;SDS011;61166;54.228;37.632;2022-12-18T12:42:18;14.13;;;5.45;;
72974;SDS011;61166;54.228;37.632;2022-12-18T12:44:53;15.55;;;6.68;;
72974;SDS011;61166;54.228;37.632;2022-12-18T12:47:25;12.82;;;5.43;;
72974;SDS011;61166;54.228;37.632;2022-12-18T12:49:57;13.07;;;5.50;;
72974;SDS011;61166;54.228;37.632;2022-12-18T12:52:28;11.93;;;5.20;;
72974;SDS011;61166;54.228;37.632;2022-12-18T12:55:00;12.30;;;5.38;;
72974;SDS011;61166;54.228;37.632;2022-12-18T12:57:40;12.48;;;5.15;;
72974;SDS011;61166;54.228;37.632;2022-12-18T13:00:12;12.63;;;4.85;;
72974;SDS011;61166;54.228;37.632;2022-12-18T13:02:50;14.57;;;5.72;;
72974;SDS011;61166;54.228;37.632;2022-12-18T13:05:48;13.40;;;5.27;;
72974;SDS011;61166;54.228;37.632;2022-12-18T13:08:23;12.75;;;5.45;;
72974;SDS011;61166;54.228;37.632;2022-12-18T13:10:57;10.40;;;4.57;;
72974;SDS011;61166;54.228;37.632;2022-12-18T13:13:25;11.48;;;5.68;;
72974;SDS011;61166;54.228;37.632;2022-12-18T13:16:05;13.95;;;5.30;;
72974;SDS011;61166;54.228;37.632;2022-12-18T13:18:33;15.17;;;5.47;;
72974;SDS011;61166;54.228;37.632;2022-12-18T13:21:02;13.80;;;5.82;;
72974;SDS011;61166;54.228;37.632;2022-12-18T13:23:38;11.60;;;4.53;;
72974;SDS011;61166;54.228;37.632;2022-12-18T13:30:59;12.87;;;5.47;;
72974;SDS011;61166;54.228;37.632;2022-12-18T13:33:40;9.50;;;3.78;;
72974;SDS011;61166;54.228;37.632;2022-12-18T13:36:29;12.52;;;5.30;;
72974;SDS011;61166;54.228;37.632;2022-12-18T13:39:11;10.77;;;4.80;;
72974;SDS011;61166;54.228;37.632;2022-12-18T13:44:35;16.10;;;5.30;;
72974;SDS011;61166;54.228;37.632;2022-12-18T13:50:09;9.50;;;3.60;;
72974;SDS011;61166;54.228;37.632;2022-12-18T13:52:50;10.68;;;4.13;;
72974;SDS011;61166;54.228;37.632;2022-12-18T13:55:19;11.20;;;4.38;;
72974;SDS011;61166;54.228;37.632;2022-12-18T13:57:46;11.23;;;4.50;;
72974;SDS011;61166;54.228;37.632;2022-12-18T14:00:27;11.35;;;4.07;;
72974;SDS011;61166;54.228;37.632;2022-12-18T14:02:55;12.70;;;4.97;;
72974;SDS011;61166;54.228;37.632;2022-12-18T14:05:24;26.55;;;10.18;;
72974;SDS011;61166;54.228;37.632;2022-12-18T14:07:54;9.98;;;4.40;;
72974;SDS011;61166;54.228;37.632;2022-12-18T14:10:22;10.17;;;4.90;;
72974;SDS011;61166;54.228;37.632;2022-12-18T14:13:09;12.90;;;3.83;;
72974;SDS011;61166;54.228;37.632;2022-12-18T14:15:44;12.60;;;4.97;;
72974;SDS011;61166;54.228;37.632;2022-12-18T14:20:41;9.90;;;3.75;;
72974;SDS011;61166;54.228;37.632;2022-12-18T14:23:27;12.50;;;4.87;;
72974;SDS011;61166;54.228;37.632;2022-12-18T14:25:54;13.88;;;3.72;;
72974;SDS011;61166;54.228;37.632;2022-12-18T14:28:26;12.43;;;4.70;;
72974;SDS011;61166;54.228;37.632;2022-12-18T14:30:53;9.13;;;4.10;;
72974;SDS011;61166;54.228;37.632;2022-12-18T14:33:21;11.05;;;4.57;;
72974;SDS011;61166;54.228;37.632;2022-12-18T14:38:23;15.20;;;4.30;;
72974;SDS011;61166;54.228;37.632;2022-12-18T14:41:10;8.18;;;3.33;;
72974;SDS011;61166;54.228;37.632;2022-12-18T14:43:45;8.32;;;3.13;;
72974;SDS011;61166;54.228;37.632;2022-12-18T14:46:30;7.55;;;2.72;;
72974;SDS011;61166;54.228;37.632;2022-12-18T14:49:00;9.37;;;3.30;;
72974;SDS011;61166;54.228;37.632;2022-12-18T14:51:30;10.40;;;4.00;;
72974;SDS011;61166;54.228;37.632;2022-12-18T14:53:59;9.43;;;4.28;;
72974;SDS011;61166;54.228;37.632;2022-12-18T14:56:31;6.55;;;2.45;;
72974;SDS011;61166;54.228;37.632;2022-12-18T14:59:01;9.43;;;3.65;;
72974;SDS011;61166;54.228;37.632;2022-12-18T15:04:35;7.95;;;3.17;;
72974;SDS011;61166;54.228;37.632;2022-12-18T15:09:39;9.95;;;3.53;;
72974;SDS011;61166;54.228;37.632;2022-12-18T15:15:03;12.43;;;5.17;;
72974;SDS011;61166;54.228;37.632;2022-12-18T15:17:31;10.60;;;4.55;;
72974;SDS011;61166;54.228;37.632;2022-12-18T15:19:59;10.45;;;3.78;;
72974;SDS011;61166;54.228;37.632;2022-12-18T15:22:29;11.48;;;4.68;;
72974;SDS011;61166;54.228;37.632;2022-12-18T15:25:00;6.72;;;3.13;;
72974;SDS011;61166;54.228;37.632;2022-12-18T15:30:11;11.15;;;3.67;;
72974;SDS011;61166;54.228;37.632;2022-12-18T15:32:43;9.98;;;4.43;;
72974;SDS011;61166;54.228;37.632;2022-12-18T15:37:48;10.52;;;4.57;;
72974;SDS011;61166;54.228;37.632;2022-12-18T15:40:20;8.60;;;3.00;;
72974;SDS011;61166;54.228;37.632;2022-12-18T15:42:48;9.82;;;4.47;;
72974;SDS011;61166;54.228;37.632;2022-12-18T15:45:17;7.10;;;3.42;;
72974;SDS011;61166;54.228;37.632;2022-12-18T15:47:45;8.20;;;3.00;;
72974;SDS011;61166;54.228;37.632;2022-12-18T15:50:11;8.32;;;3.58;;
72974;SDS011;61166;54.228;37.632;2022-12-18T15:52:41;6.27;;;2.80;;
72974;SDS011;61166;54.228;37.632;2022-12-18T15:55:11;7.55;;;3.58;;
72974;SDS011;61166;54.228;37.632;2022-12-18T15:57:39;5.38;;;2.15;;
72974;SDS011;61166;54.228;37.632;2022-12-18T16:00:06;7.68;;;3.05;;
72974;SDS011;61166;54.228;37.632;2022-12-18T16:02:37;5.63;;;2.40;;
72974;SDS011;61166;54.228;37.632;2022-12-18T16:05:08;7.13;;;2.60;;
72974;SDS011;61166;54.228;37.632;2022-12-18T16:07:40;7.40;;;2.85;;
72974;SDS011;61166;54.228;37.632;2022-12-18T16:10:07;14.13;;;5.50;;
72974;SDS011;61166;54.228;37.632;2022-12-18T16:12:33;4.50;;;1.58;;
72974;SDS011;61166;54.228;37.632;2022-12-18T16:15:03;10.38;;;3.65;;
72974;SDS011;61166;54.228;37.632;2022-12-18T16:17:31;7.17;;;2.70;;
72974;SDS011;61166;54.228;37.632;2022-12-18T16:19:57;8.77;;;3.83;;
72974;SDS011;61166;54.228;37.632;2022-12-18T16:22:26;8.00;;;3.13;;
72974;SDS011;61166;54.228;37.632;2022-12-18T16:24:55;5.32;;;1.77;;
72974;SDS011;61166;54.228;37.632;2022-12-18T16:27:23;8.15;;;3.42;;
72974;SDS011;61166;54.228;37.632;2022-12-18T16:29:50;11.17;;;4.03;;
72974;SDS011;61166;54.228;37.632;2022-12-18T16:32:18;10.38;;;4.05;;
72974;SDS011;61166;54.228;37.632;2022-12-18T16:34:49;6.43;;;3.03;;
72974;SDS011;61166;54.228;37.632;2022-12-18T16:37:16;11.30;;;3.92;;
72974;SDS011;61166;54.228;37.632;2022-12-18T16:39:43;10.77;;;3.42;;
72974;SDS011;61166;54.228;37.632;2022-12-18T16:44:36;11.05;;;4.00;;
72974;SDS011;61166;54.228;37.632;2022-12-18T16:47:03;13.38;;;4.22;;
72974;SDS011;61166;54.228;37.632;2022-12-18T16:49:31;10.93;;;3.63;;